createdAt,value
2023-02-04T00:02:38.966Z,9.17
2023-02-04T00:08:00.441Z,8.40
2023-02-04T00:13:21.916Z,13.03
2023-02-04T00:18:43.426Z,16.40
2023-02-04T00:24:05.250Z,9.13
2023-02-04T00:29:29.475Z,15.93
2023-02-04T00:34:50.835Z,14.07
2023-02-04T00:40:12.704Z,3.87
2023-02-04T00:45:34.246Z,0.77
2023-02-04T00:50:55.716Z,1.87
2023-02-04T00:56:17.259Z,4.93
2023-02-04T01:01:39.032Z,2.20
2023-02-04T01:07:00.402Z,2.40
2023-02-04T01:12:23.114Z,1.87
2023-02-04T01:17:44.860Z,1.43
2023-02-04T01:23:08.008Z,2.37
2023-02-04T01:28:29.588Z,2.17
2023-02-04T01:33:53.226Z,3.67
2023-02-04T01:39:15.405Z,2.23
2023-02-04T01:44:36.718Z,3.90
2023-02-04T01:49:58.279Z,2.40
2023-02-04T01:55:24.459Z,2.93
2023-02-04T02:00:46.392Z,3.67
2023-02-04T02:06:09.825Z,3.03
2023-02-04T02:11:31.884Z,2.83
2023-02-04T02:16:54.271Z,1.47
2023-02-04T02:22:37.707Z,3.63
2023-02-04T02:28:00.668Z,4.07
2023-02-04T02:33:22.386Z,3.53
2023-02-04T02:38:44.487Z,3.70
2023-02-04T02:44:06.311Z,3.57
2023-02-04T02:49:32.444Z,2.00
2023-02-04T02:54:54.086Z,3.53
2023-02-04T03:00:31.311Z,2.10
2023-02-04T03:05:57.382Z,4.90
2023-02-04T03:11:18.717Z,1.77
2023-02-04T03:16:40.621Z,2.90
2023-02-04T03:22:02.358Z,2.70
2023-02-04T03:27:23.807Z,5.20
2023-02-04T03:32:45.792Z,3.10
2023-02-04T03:38:07.119Z,5.17
2023-02-04T03:43:28.724Z,3.10
2023-02-04T03:48:50.736Z,3.40
2023-02-04T03:54:12.405Z,6.60
2023-02-04T03:59:33.947Z,4.87
2023-02-04T04:04:55.452Z,3.23
2023-02-04T04:10:17.186Z,3.07
2023-02-04T04:15:38.711Z,2.47
2023-02-04T04:21:01.122Z,4.10
2023-02-04T04:26:22.830Z,3.20
2023-02-04T04:31:45.183Z,4.03
2023-02-04T04:37:06.559Z,2.57
2023-02-04T04:42:27.788Z,3.67
2023-02-04T04:47:49.317Z,3.37
2023-02-04T04:53:11.524Z,3.60
2023-02-04T04:58:33.165Z,3.40
2023-02-04T05:03:54.642Z,5.37
2023-02-04T05:09:17.647Z,2.33
2023-02-04T05:14:38.948Z,2.83
2023-02-04T05:20:00.188Z,2.53
2023-02-04T05:25:22.882Z,2.40
2023-02-04T05:30:44.441Z,2.77
2023-02-04T05:36:06.051Z,3.13
2023-02-04T05:41:27.677Z,6.77
2023-02-04T05:46:49.326Z,2.70
2023-02-04T05:52:10.931Z,3.10
2023-02-04T05:57:32.381Z,4.37
2023-02-04T06:02:53.976Z,3.37
2023-02-04T06:08:16.032Z,7.77
2023-02-04T06:13:38.148Z,3.13
2023-02-04T06:19:00.023Z,4.17
2023-02-04T06:24:21.557Z,6.80
2023-02-04T06:29:42.915Z,3.43
2023-02-04T06:35:04.237Z,3.90
2023-02-04T06:40:26.002Z,4.10
2023-02-04T06:45:47.565Z,2.53
2023-02-04T06:51:08.955Z,2.77
2023-02-04T06:56:30.493Z,4.43
2023-02-04T07:01:52.171Z,3.30
2023-02-04T07:07:13.850Z,3.30
2023-02-04T07:12:35.336Z,4.00
2023-02-04T07:17:57.132Z,3.83
2023-02-04T07:23:18.767Z,3.30
2023-02-04T07:28:41.454Z,7.97
2023-02-04T07:34:03.086Z,5.03
2023-02-04T07:39:24.666Z,8.17
2023-02-04T07:44:46.288Z,5.67
2023-02-04T07:50:08.079Z,6.63
2023-02-04T07:55:29.725Z,6.43
2023-02-04T08:00:51.514Z,3.17
2023-02-04T08:06:13.028Z,5.37
2023-02-04T08:11:34.702Z,5.23
2023-02-04T08:16:56.309Z,4.00
2023-02-04T08:22:17.804Z,4.47
2023-02-04T08:27:39.911Z,4.37
2023-02-04T08:33:01.111Z,4.17
2023-02-04T08:38:22.887Z,3.53
2023-02-04T08:43:44.284Z,5.77
2023-02-04T08:49:05.615Z,6.33
2023-02-04T08:54:27.197Z,5.83
2023-02-04T08:59:48.938Z,5.70
2023-02-04T09:05:10.596Z,6.17
2023-02-04T09:10:32.406Z,8.90
2023-02-04T09:15:54.411Z,6.50
2023-02-04T09:21:15.772Z,5.97
2023-02-04T09:26:37.420Z,7.80
2023-02-04T09:31:59.540Z,7.77
2023-02-04T09:37:20.733Z,6.27
2023-02-04T09:42:42.645Z,5.53
2023-02-04T09:48:05.831Z,5.10
2023-02-04T09:53:27.463Z,6.60
2023-02-04T09:58:49.207Z,7.40
2023-02-04T10:04:14.002Z,7.77
2023-02-04T10:09:35.342Z,6.67
2023-02-04T10:14:57.007Z,5.80
2023-02-04T10:20:21.277Z,6.33
2023-02-04T10:25:43.431Z,5.43
2023-02-04T10:31:05.288Z,6.40
2023-02-04T10:36:26.775Z,5.07
2023-02-04T10:41:50.046Z,6.60
2023-02-04T10:47:18.942Z,10.40
2023-02-04T10:52:43.641Z,6.97
2023-02-04T10:58:05.895Z,5.23
2023-02-04T11:03:31.002Z,5.60
2023-02-04T11:08:54.770Z,6.03
2023-02-04T11:14:31.767Z,4.20
2023-02-04T11:19:53.280Z,7.60
2023-02-04T11:25:35.031Z,4.03
2023-02-04T11:31:01.697Z,5.13
2023-02-04T11:36:23.261Z,4.73
2023-02-04T11:41:46.886Z,7.73
2023-02-04T11:47:09.783Z,5.17
2023-02-04T11:52:35.192Z,3.57
2023-02-04T11:57:57.617Z,6.30
2023-02-04T12:03:22.094Z,4.43
2023-02-04T12:08:43.821Z,5.40
2023-02-04T12:14:17.462Z,3.37
2023-02-04T12:19:38.993Z,4.07
2023-02-04T12:25:00.538Z,4.80
2023-02-04T12:30:23.254Z,3.13
2023-02-04T12:35:45.111Z,5.43
2023-02-04T12:41:06.478Z,2.80
2023-02-04T12:46:28.740Z,4.50
2023-02-04T12:51:51.530Z,6.27
2023-02-04T12:57:14.660Z,4.53
2023-02-04T13:02:36.100Z,3.80
2023-02-04T13:07:57.926Z,3.13
2023-02-04T13:13:20.249Z,2.93
2023-02-04T13:18:41.590Z,3.73
2023-02-04T13:24:02.911Z,4.40
2023-02-04T13:29:24.412Z,5.20
2023-02-04T13:34:46.195Z,5.20
2023-02-04T13:40:09.574Z,4.87
2023-02-04T13:45:31.550Z,4.00
2023-02-04T13:50:53.292Z,3.53
2023-02-04T13:56:14.810Z,3.07
2023-02-04T14:01:36.456Z,4.23
2023-02-04T14:06:58.104Z,1.80
2023-02-04T14:12:19.653Z,2.27
2023-02-04T14:17:41.243Z,5.57
2023-02-04T14:23:05.610Z,3.80
2023-02-04T14:28:26.920Z,7.10
2023-02-04T14:33:50.566Z,5.07
2023-02-04T14:39:11.713Z,3.97
2023-02-04T14:44:33.453Z,3.10
2023-02-04T14:49:54.950Z,5.47
2023-02-04T14:55:16.527Z,7.00
2023-02-04T15:00:38.671Z,2.43
2023-02-04T15:05:59.812Z,4.03
2023-02-04T15:11:21.415Z,3.93
2023-02-04T15:16:44.603Z,8.03
2023-02-04T15:22:06.017Z,2.53
2023-02-04T15:27:27.622Z,3.87
2023-02-04T15:32:49.125Z,4.43
2023-02-04T15:38:11.197Z,4.37
2023-02-04T15:43:32.636Z,7.60
2023-02-04T15:48:54.268Z,5.10
2023-02-04T15:54:15.859Z,4.60
2023-02-04T15:59:37.372Z,5.83
2023-02-04T16:04:58.821Z,5.30
2023-02-04T16:10:20.453Z,5.83
2023-02-04T16:15:42.080Z,12.53
2023-02-04T16:21:03.402Z,15.53
2023-02-04T16:26:24.958Z,14.90
2023-02-04T16:31:46.661Z,8.93
2023-02-04T16:37:08.261Z,9.47
2023-02-04T16:42:31.294Z,10.87
2023-02-04T16:47:52.650Z,8.40
2023-02-04T16:53:16.982Z,7.33
2023-02-04T16:58:40.038Z,9.43
2023-02-04T17:04:01.384Z,7.37
2023-02-04T17:09:22.876Z,12.70
2023-02-04T17:14:44.495Z,21.07
2023-02-04T17:20:06.039Z,22.17
2023-02-04T17:25:27.682Z,21.03
2023-02-04T17:30:48.996Z,10.43
2023-02-04T17:36:11.202Z,12.03
2023-02-04T17:41:32.737Z,9.67
2023-02-04T17:46:54.191Z,16.17
2023-02-04T17:52:15.598Z,26.13
2023-02-04T17:57:37.379Z,15.00
2023-02-04T18:02:59.340Z,16.23
2023-02-04T18:08:23.101Z,17.23
2023-02-04T18:13:44.569Z,9.97
2023-02-04T18:19:22.205Z,14.60
2023-02-04T18:24:46.236Z,13.80
2023-02-04T18:30:20.105Z,9.57
2023-02-04T18:35:44.185Z,7.93
2023-02-04T18:41:21.065Z,9.73
2023-02-04T18:46:46.977Z,10.63
2023-02-04T18:52:20.341Z,9.97
2023-02-04T18:57:41.680Z,14.27
2023-02-04T19:03:24.329Z,11.43
2023-02-04T19:08:46.464Z,16.17
2023-02-04T19:14:36.449Z,23.37
2023-02-04T19:20:20.957Z,21.77
2023-02-04T19:25:47.299Z,20.63
2023-02-04T19:31:09.272Z,17.67
2023-02-04T19:36:38.238Z,23.67
2023-02-04T19:41:59.510Z,18.23
2023-02-04T19:47:36.539Z,17.57
2023-02-04T19:53:11.319Z,19.63
2023-02-04T19:58:42.487Z,20.90
2023-02-04T20:04:13.342Z,16.40
2023-02-04T20:09:35.252Z,19.97
2023-02-04T20:15:11.221Z,20.03
2023-02-04T20:20:33.528Z,17.33
2023-02-04T20:25:57.148Z,20.33
2023-02-04T20:31:24.720Z,19.60
2023-02-04T20:36:46.950Z,18.93
2023-02-04T20:42:32.689Z,15.10
2023-02-04T20:48:00.032Z,15.87
2023-02-04T20:53:31.210Z,49.40
2023-02-04T20:59:10.247Z,38.70
2023-02-04T21:04:32.399Z,20.37
2023-02-04T21:09:56.891Z,13.00
2023-02-04T21:15:18.530Z,11.47
2023-02-04T21:20:40.189Z,14.20
2023-02-04T21:26:02.002Z,12.40
2023-02-04T21:31:23.458Z,10.03
2023-02-04T21:36:45.226Z,14.33
2023-02-04T21:42:13.594Z,10.90
2023-02-04T21:47:35.134Z,9.90
2023-02-04T21:52:56.959Z,11.77
2023-02-04T21:58:18.657Z,15.10
2023-02-04T22:03:40.039Z,10.40
2023-02-04T22:09:01.686Z,11.43
2023-02-04T22:14:23.072Z,12.17
2023-02-04T22:19:44.369Z,10.27
2023-02-04T22:25:06.043Z,11.23
2023-02-04T22:30:27.700Z,13.03
2023-02-04T22:35:49.281Z,13.33
2023-02-04T22:41:10.731Z,9.83
2023-02-04T22:46:32.429Z,8.00
2023-02-04T22:51:53.806Z,8.50
2023-02-04T22:57:15.346Z,6.43
2023-02-04T23:02:37.170Z,8.30
2023-02-04T23:07:58.748Z,8.17
2023-02-04T23:13:20.417Z,11.43
2023-02-04T23:18:41.755Z,4.77
2023-02-04T23:24:03.488Z,5.80
2023-02-04T23:29:24.862Z,6.37
2023-02-04T23:34:46.111Z,5.83
2023-02-04T23:40:08.157Z,8.87
2023-02-04T23:45:29.453Z,7.10
2023-02-04T23:50:51.526Z,7.43
2023-02-04T23:56:12.713Z,8.53
